Terminal Aerodrome Forecast
Issued by NWS

Home | Current Version | Previous Version | Text Only | Print | Product List | Glossary On
Versions: 1 2 3 4 5 6 7 8 9 10 11 12 13 14 15 16 17 18 19 20 21 22
000
FTUS41 KRLX 210500
TAFCKB
TAF
KCKB 210522Z 2106/2206 00000KT P6SM BKN025
     FM211100 00000KT P6SM BKN020
     FM211700 VRB03KT P6SM BKN025
     FM212200 00000KT P6SM SCT025
     FM220000 00000KT P6SM SCT250=

USA.gov is the U.S. government's official web portal to all federal, state and local government web resources and services.